METAR Data
IDs: Format: Raw Decoded Include TAF

Data at: 0525 UTC 19 Aug 2019

KBPK 190453Z AUTO 13004KT 10SM FEW100 25/24 A2997 RMK AO2 SLP137 T02500239
KBPK 190353Z AUTO 00000KT 10SM BKN120 26/24 A2997 RMK AO2 SLP136 T02610244
KBPK 190253Z AUTO 16003KT 10SM SCT033 27/24 A2996 RMK AO2 SLP132 T02670244 53025
KBPK 190153Z AUTO 19005KT 10SM SCT037 27/24 A2993 RMK AO2 SLP123 T02720244
KBPK 190053Z AUTO 18003KT 10SM CLR 28/25 A2991 RMK AO2 SLP115 T02780250
KBPK 182353Z AUTO 19003KT 10SM CLR 31/25 A2988 RMK AO2 SLP106 60003 T03060250 10328 20267 51006
KBPK 182253Z AUTO 20004KT 10SM BKN031 31/25 A2988 RMK AO2 SLP104 T03110250
KBPK 182153Z AUTO 23004KT 10SM CLR 32/26 A2987 RMK AO2 SLP103 T03170256
KBPK 182053Z AUTO 00000KT 10SM FEW043 31/26 A2986 RMK AO2 SLP100 60003 T03060256 58020
KBPK 181953Z AUTO 19004KT 10SM SCT045 28/23 A2989 RMK AO2 RAE02B09E23 TSB1857E27 SLP109 P0000 T02830233
KBPK 181933Z AUTO 18003KT 10SM FEW039 28/24 A2989 RMK AO2 LTG DSNT SE RAE02B09E23 TSB1857E27 P0000 T02780239
KBPK 181903Z AUTO 00000KT 10SM TS SCT045 SCT065 BKN090 27/26 A2992 RMK AO2 LTG DSNT S RAE02 TSB1857 P0000 T02670256
KBPK 181853Z AUTO 00000KT 4SM VCTS -RA FEW035 SCT090 BKN110 27/24 A2992 RMK AO2 LTG DSNT S RAB40 TSB31E51 SLP121 P0003 T02720239
KBPK 181837Z AUTO VRB03KT 10SM TS FEW100 31/24 A2992 RMK AO2 LTG DSNT S-NW TSB31 T03060239
KBPK 181820Z AUTO 24007KT 10SM VCTS CLR 32/24 A2991 RMK AO2 LTG DSNT W AND NW T03220239
KBPK 181753Z AUTO 23010G15KT 10SM FEW037 32/24 A2992 RMK AO2 LTG DSNT W AND NW SLP120 T03170244 10317 20239 58003
KBPK 181653Z AUTO 22006KT 10SM CLR 31/24 A2995 RMK AO2 SLP130 T03060239
KBPK 181553Z AUTO 23005KT 10SM CLR 29/23 A2995 RMK AO2 SLP130 T02940228
KBPK 181453Z AUTO 00000KT 10SM CLR 28/21 A2993 RMK AO2 SLP123 T02830211 50006
KBPK 181353Z AUTO VRB03KT 10SM FEW047 FEW070 SCT100 27/23 A2994 RMK AO2 SLP125 T02670228
KBPK 181253Z AUTO 25003KT 10SM CLR 25/22 A2993 RMK AO2 SLP123 T02500222
KBPK 181153Z AUTO 00000KT 10SM CLR 24/22 A2991 RMK AO2 SLP116 T02390217 10256 20233 51012
KBPK 181053Z AUTO 24003KT 10SM CLR 24/22 A2991 RMK AO2 SLP115 T02440217
KBPK 180953Z AUTO 00000KT 10SM CLR 24/22 A2989 RMK AO2 SLP110 T02390217
KBPK 180853Z AUTO 19004KT 10SM CLR 24/21 A2988 RMK AO2 SLP104 T02390211 58008
KBPK 180753Z AUTO 20004KT 10SM CLR 24/21 A2989 RMK AO2 SLP108 T02440211
KBPK 180653Z AUTO 19003KT 10SM CLR 24/21 A2989 RMK AO2 SLP109 T02440211
KBPK 180453Z AUTO 18003KT 10SM CLR 26/22 A2991 RMK AO2 SLP115 T02560217
KBPK 180353Z AUTO 19004KT 10SM CLR 27/22 A2990 RMK AO2 SLP114 T02670222
KBPK 180253Z AUTO 19006KT 10SM CLR 27/22 A2989 RMK AO2 SLP110 T02720222 53009
KBPK 180153Z AUTO 19005KT 10SM CLR 28/22 A2987 RMK AO2 SLP105 T02780222
KBPK 180053Z AUTO 20005KT 10SM CLR 28/22 A2986 RMK AO2 SLP101 T02830217
KBPK 172353Z AUTO 21006KT 10SM CLR 31/21 A2986 RMK AO2 SLP101 T03060206 10333 20306 57011
KBPK 172253Z AUTO 21008KT 10SM CLR 32/22 A2988 RMK AO2 SLP104 T03220217
KBPK 172153Z AUTO 23007KT 10SM CLR 33/22 A2988 RMK AO2 SLP107 T03280222
KBPK 172053Z AUTO VRB05KT 10SM CLR 33/23 A2990 RMK AO2 SLP111 T03280228 56021
KBPK 171953Z AUTO 18003KT 10SM CLR 32/23 A2991 RMK AO2 SLP117 T03170228
KBPK 171853Z AUTO 17007KT 10SM CLR 32/23 A2993 RMK AO2 SLP122 T03170233
KBPK 171753Z AUTO 34003KT 10SM CLR 31/22 A2996 RMK AO2 SLP133 T03060222 10311 20217 58002